sensor_id;sensor_type;location;lat;lon;timestamp;P1;durP1;ratioP1;P2;durP2;ratioP2
36105;SDS011;22159;55.736;38.048;2024-02-26T00:01:26;2.47;;;1.20;;
36105;SDS011;22159;55.736;38.048;2024-02-26T00:03:53;1.35;;;0.95;;
36105;SDS011;22159;55.736;38.048;2024-02-26T00:06:20;1.92;;;1.10;;
36105;SDS011;22159;55.736;38.048;2024-02-26T00:08:46;1.30;;;1.05;;
36105;SDS011;22159;55.736;38.048;2024-02-26T00:11:12;1.05;;;0.82;;
36105;SDS011;22159;55.736;38.048;2024-02-26T00:13:38;2.03;;;1.00;;
36105;SDS011;22159;55.736;38.048;2024-02-26T00:16:04;1.52;;;1.13;;
36105;SDS011;22159;55.736;38.048;2024-02-26T00:18:31;1.38;;;1.20;;
36105;SDS011;22159;55.736;38.048;2024-02-26T00:20:57;1.50;;;0.90;;
36105;SDS011;22159;55.736;38.048;2024-02-26T00:23:23;1.33;;;0.88;;
36105;SDS011;22159;55.736;38.048;2024-02-26T00:25:49;1.20;;;1.05;;
36105;SDS011;22159;55.736;38.048;2024-02-26T00:28:15;1.10;;;0.90;;
36105;SDS011;22159;55.736;38.048;2024-02-26T00:30:41;1.05;;;0.77;;
36105;SDS011;22159;55.736;38.048;2024-02-26T00:33:07;0.93;;;0.77;;
36105;SDS011;22159;55.736;38.048;2024-02-26T00:35:33;1.58;;;1.00;;
36105;SDS011;22159;55.736;38.048;2024-02-26T00:37:59;1.30;;;0.95;;
36105;SDS011;22159;55.736;38.048;2024-02-26T00:40:27;1.65;;;0.90;;
36105;SDS011;22159;55.736;38.048;2024-02-26T00:42:53;1.52;;;0.98;;
36105;SDS011;22159;55.736;38.048;2024-02-26T00:45:19;2.25;;;0.95;;
36105;SDS011;22159;55.736;38.048;2024-02-26T00:47:45;0.63;;;0.63;;
36105;SDS011;22159;55.736;38.048;2024-02-26T00:50:12;2.33;;;0.77;;
36105;SDS011;22159;55.736;38.048;2024-02-26T00:52:38;1.85;;;0.90;;
36105;SDS011;22159;55.736;38.048;2024-02-26T00:55:04;1.00;;;0.80;;
36105;SDS011;22159;55.736;38.048;2024-02-26T00:57:31;0.70;;;0.68;;
36105;SDS011;22159;55.736;38.048;2024-02-26T00:59:57;1.02;;;0.90;;
36105;SDS011;22159;55.736;38.048;2024-02-26T01:02:24;0.88;;;0.80;;
36105;SDS011;22159;55.736;38.048;2024-02-26T01:04:50;0.95;;;0.77;;
36105;SDS011;22159;55.736;38.048;2024-02-26T01:07:16;0.88;;;0.60;;
36105;SDS011;22159;55.736;38.048;2024-02-26T01:09:42;1.15;;;0.80;;
36105;SDS011;22159;55.736;38.048;2024-02-26T01:12:08;1.30;;;0.80;;
36105;SDS011;22159;55.736;38.048;2024-02-26T01:14:34;0.68;;;0.60;;
36105;SDS011;22159;55.736;38.048;2024-02-26T01:17:00;2.00;;;0.90;;
36105;SDS011;22159;55.736;38.048;2024-02-26T01:19:26;1.10;;;0.93;;
36105;SDS011;22159;55.736;38.048;2024-02-26T01:21:52;0.95;;;0.80;;
36105;SDS011;22159;55.736;38.048;2024-02-26T01:24:18;1.00;;;0.70;;
36105;SDS011;22159;55.736;38.048;2024-02-26T01:26:44;0.70;;;0.70;;
36105;SDS011;22159;55.736;38.048;2024-02-26T01:29:10;0.93;;;0.73;;
36105;SDS011;22159;55.736;38.048;2024-02-26T01:31:36;0.93;;;0.73;;
36105;SDS011;22159;55.736;38.048;2024-02-26T01:34:03;1.25;;;0.88;;
36105;SDS011;22159;55.736;38.048;2024-02-26T01:36:29;0.55;;;0.52;;
36105;SDS011;22159;55.736;38.048;2024-02-26T01:38:55;0.75;;;0.52;;
36105;SDS011;22159;55.736;38.048;2024-02-26T01:41:21;0.68;;;0.68;;
36105;SDS011;22159;55.736;38.048;2024-02-26T01:43:47;0.80;;;0.75;;
36105;SDS011;22159;55.736;38.048;2024-02-26T01:46:13;1.02;;;0.60;;
36105;SDS011;22159;55.736;38.048;2024-02-26T01:48:40;1.50;;;0.90;;
36105;SDS011;22159;55.736;38.048;2024-02-26T01:51:07;0.60;;;0.60;;
36105;SDS011;22159;55.736;38.048;2024-02-26T01:53:33;1.77;;;0.90;;
36105;SDS011;22159;55.736;38.048;2024-02-26T01:55:59;1.17;;;0.70;;
36105;SDS011;22159;55.736;38.048;2024-02-26T01:58:25;0.80;;;0.70;;
36105;SDS011;22159;55.736;38.048;2024-02-26T02:00:51;1.10;;;0.60;;
36105;SDS011;22159;55.736;38.048;2024-02-26T02:03:17;0.75;;;0.70;;
36105;SDS011;22159;55.736;38.048;2024-02-26T02:05:43;1.02;;;0.70;;
36105;SDS011;22159;55.736;38.048;2024-02-26T02:08:13;0.93;;;0.77;;
36105;SDS011;22159;55.736;38.048;2024-02-26T02:10:42;0.70;;;0.70;;
36105;SDS011;22159;55.736;38.048;2024-02-26T02:13:08;0.80;;;0.70;;
36105;SDS011;22159;55.736;38.048;2024-02-26T02:15:34;1.50;;;0.80;;
36105;SDS011;22159;55.736;38.048;2024-02-26T02:18:00;0.98;;;0.80;;
36105;SDS011;22159;55.736;38.048;2024-02-26T02:20:31;1.15;;;0.90;;
36105;SDS011;22159;55.736;38.048;2024-02-26T02:22:58;1.10;;;0.65;;
36105;SDS011;22159;55.736;38.048;2024-02-26T02:25:24;0.85;;;0.70;;
36105;SDS011;22159;55.736;38.048;2024-02-26T02:27:50;1.42;;;0.50;;
36105;SDS011;22159;55.736;38.048;2024-02-26T02:30:16;0.57;;;0.55;;
36105;SDS011;22159;55.736;38.048;2024-02-26T02:32:43;0.73;;;0.73;;
36105;SDS011;22159;55.736;38.048;2024-02-26T02:35:09;0.65;;;0.60;;
36105;SDS011;22159;55.736;38.048;2024-02-26T02:37:35;0.95;;;0.70;;
36105;SDS011;22159;55.736;38.048;2024-02-26T02:40:02;0.80;;;0.68;;
36105;SDS011;22159;55.736;38.048;2024-02-26T02:42:28;0.73;;;0.73;;
36105;SDS011;22159;55.736;38.048;2024-02-26T02:44:54;0.55;;;0.55;;
36105;SDS011;22159;55.736;38.048;2024-02-26T02:47:20;0.73;;;0.65;;
36105;SDS011;22159;55.736;38.048;2024-02-26T02:49:46;0.60;;;0.60;;
36105;SDS011;22159;55.736;38.048;2024-02-26T02:52:12;1.38;;;0.50;;
36105;SDS011;22159;55.736;38.048;2024-02-26T02:54:38;1.35;;;0.73;;
36105;SDS011;22159;55.736;38.048;2024-02-26T02:57:06;1.50;;;0.70;;
36105;SDS011;22159;55.736;38.048;2024-02-26T02:59:33;1.55;;;0.60;;
36105;SDS011;22159;55.736;38.048;2024-02-26T03:01:59;1.40;;;0.85;;
36105;SDS011;22159;55.736;38.048;2024-02-26T03:04:25;1.45;;;0.70;;
36105;SDS011;22159;55.736;38.048;2024-02-26T03:06:51;1.77;;;0.70;;
36105;SDS011;22159;55.736;38.048;2024-02-26T03:09:17;2.03;;;0.73;;
36105;SDS011;22159;55.736;38.048;2024-02-26T03:11:43;1.45;;;0.80;;
36105;SDS011;22159;55.736;38.048;2024-02-26T03:14:09;1.35;;;0.80;;
36105;SDS011;22159;55.736;38.048;2024-02-26T03:16:35;1.08;;;0.70;;
36105;SDS011;22159;55.736;38.048;2024-02-26T03:19:01;2.70;;;1.10;;
36105;SDS011;22159;55.736;38.048;2024-02-26T03:21:28;1.83;;;0.80;;
36105;SDS011;22159;55.736;38.048;2024-02-26T03:23:54;3.67;;;1.00;;
36105;SDS011;22159;55.736;38.048;2024-02-26T03:26:20;2.35;;;1.00;;
36105;SDS011;22159;55.736;38.048;2024-02-26T03:28:46;1.40;;;0.98;;
36105;SDS011;22159;55.736;38.048;2024-02-26T03:31:12;3.92;;;1.80;;
36105;SDS011;22159;55.736;38.048;2024-02-26T03:33:39;7.88;;;1.67;;
36105;SDS011;22159;55.736;38.048;2024-02-26T03:36:05;2.97;;;1.45;;
36105;SDS011;22159;55.736;38.048;2024-02-26T03:38:32;6.80;;;1.52;;
36105;SDS011;22159;55.736;38.048;2024-02-26T03:40:58;5.38;;;1.58;;
36105;SDS011;22159;55.736;38.048;2024-02-26T03:43:24;4.72;;;1.65;;
36105;SDS011;22159;55.736;38.048;2024-02-26T03:45:50;5.70;;;1.58;;
36105;SDS011;22159;55.736;38.048;2024-02-26T03:48:16;6.05;;;1.52;;
36105;SDS011;22159;55.736;38.048;2024-02-26T03:50:42;6.28;;;1.48;;
36105;SDS011;22159;55.736;38.048;2024-02-26T03:53:08;6.03;;;1.77;;
36105;SDS011;22159;55.736;38.048;2024-02-26T03:55:37;5.07;;;1.65;;
36105;SDS011;22159;55.736;38.048;2024-02-26T03:58:03;3.80;;;1.80;;
36105;SDS011;22159;55.736;38.048;2024-02-26T04:00:29;3.08;;;1.45;;
36105;SDS011;22159;55.736;38.048;2024-02-26T04:02:55;5.90;;;1.73;;
36105;SDS011;22159;55.736;38.048;2024-02-26T04:05:21;4.72;;;1.38;;
36105;SDS011;22159;55.736;38.048;2024-02-26T04:07:47;69.28;;;20.50;;
36105;SDS011;22159;55.736;38.048;2024-02-26T04:10:13;58.97;;;17.65;;
36105;SDS011;22159;55.736;38.048;2024-02-26T04:12:40;47.35;;;15.65;;
36105;SDS011;22159;55.736;38.048;2024-02-26T04:15:09;46.92;;;15.15;;
36105;SDS011;22159;55.736;38.048;2024-02-26T04:17:36;42.38;;;14.65;;
36105;SDS011;22159;55.736;38.048;2024-02-26T04:20:02;42.88;;;14.73;;
36105;SDS011;22159;55.736;38.048;2024-02-26T04:22:28;40.67;;;13.90;;
36105;SDS011;22159;55.736;38.048;2024-02-26T04:24:54;37.80;;;12.40;;
36105;SDS011;22159;55.736;38.048;2024-02-26T04:27:21;28.10;;;11.32;;
36105;SDS011;22159;55.736;38.048;2024-02-26T04:29:47;30.17;;;10.88;;
36105;SDS011;22159;55.736;38.048;2024-02-26T04:32:13;28.65;;;10.95;;
36105;SDS011;22159;55.736;38.048;2024-02-26T04:34:40;30.63;;;10.48;;
36105;SDS011;22159;55.736;38.048;2024-02-26T04:37:07;25.20;;;9.77;;
36105;SDS011;22159;55.736;38.048;2024-02-26T04:39:33;26.00;;;9.38;;
36105;SDS011;22159;55.736;38.048;2024-02-26T04:41:59;26.67;;;8.75;;
36105;SDS011;22159;55.736;38.048;2024-02-26T04:44:28;29.02;;;8.63;;
36105;SDS011;22159;55.736;38.048;2024-02-26T04:46:55;23.10;;;8.85;;
36105;SDS011;22159;55.736;38.048;2024-02-26T04:49:21;21.10;;;7.63;;
36105;SDS011;22159;55.736;38.048;2024-02-26T04:51:47;19.83;;;6.88;;
36105;SDS011;22159;55.736;38.048;2024-02-26T04:54:13;16.60;;;7.00;;
36105;SDS011;22159;55.736;38.048;2024-02-26T04:56:39;15.00;;;5.95;;
36105;SDS011;22159;55.736;38.048;2024-02-26T04:59:05;12.73;;;5.70;;
36105;SDS011;22159;55.736;38.048;2024-02-26T05:01:31;17.05;;;5.60;;
36105;SDS011;22159;55.736;38.048;2024-02-26T05:03:57;12.55;;;5.10;;
36105;SDS011;22159;55.736;38.048;2024-02-26T05:06:23;12.68;;;5.00;;
36105;SDS011;22159;55.736;38.048;2024-02-26T05:08:49;12.82;;;5.50;;
36105;SDS011;22159;55.736;38.048;2024-02-26T05:11:15;11.82;;;4.68;;
36105;SDS011;22159;55.736;38.048;2024-02-26T05:13:43;9.88;;;4.40;;
36105;SDS011;22159;55.736;38.048;2024-02-26T05:16:10;12.18;;;4.57;;
36105;SDS011;22159;55.736;38.048;2024-02-26T05:18:36;11.45;;;4.50;;
36105;SDS011;22159;55.736;38.048;2024-02-26T05:21:02;11.48;;;4.53;;
36105;SDS011;22159;55.736;38.048;2024-02-26T05:23:28;9.95;;;4.15;;
36105;SDS011;22159;55.736;38.048;2024-02-26T05:25:55;8.98;;;4.00;;
36105;SDS011;22159;55.736;38.048;2024-02-26T05:28:21;8.70;;;3.65;;
36105;SDS011;22159;55.736;38.048;2024-02-26T05:30:47;9.07;;;4.00;;
36105;SDS011;22159;55.736;38.048;2024-02-26T05:33:13;9.63;;;3.70;;
36105;SDS011;22159;55.736;38.048;2024-02-26T05:35:39;6.80;;;2.97;;
36105;SDS011;22159;55.736;38.048;2024-02-26T05:38:05;9.55;;;4.28;;
36105;SDS011;22159;55.736;38.048;2024-02-26T05:40:31;6.50;;;2.95;;
36105;SDS011;22159;55.736;38.048;2024-02-26T05:42:57;6.70;;;3.10;;
36105;SDS011;22159;55.736;38.048;2024-02-26T05:45:23;7.22;;;3.03;;
36105;SDS011;22159;55.736;38.048;2024-02-26T05:47:49;7.10;;;2.97;;
36105;SDS011;22159;55.736;38.048;2024-02-26T05:50:15;5.20;;;2.60;;
36105;SDS011;22159;55.736;38.048;2024-02-26T05:52:42;6.03;;;2.55;;
36105;SDS011;22159;55.736;38.048;2024-02-26T05:55:08;6.03;;;2.83;;
36105;SDS011;22159;55.736;38.048;2024-02-26T05:57:34;5.35;;;2.70;;
36105;SDS011;22159;55.736;38.048;2024-02-26T06:00:00;6.00;;;2.45;;
36105;SDS011;22159;55.736;38.048;2024-02-26T06:02:31;5.15;;;2.30;;
36105;SDS011;22159;55.736;38.048;2024-02-26T06:04:57;5.05;;;2.40;;
36105;SDS011;22159;55.736;38.048;2024-02-26T06:07:24;6.30;;;2.20;;
36105;SDS011;22159;55.736;38.048;2024-02-26T06:09:50;3.40;;;2.30;;
36105;SDS011;22159;55.736;38.048;2024-02-26T06:12:16;3.83;;;2.13;;
36105;SDS011;22159;55.736;38.048;2024-02-26T06:14:42;4.55;;;2.53;;
36105;SDS011;22159;55.736;38.048;2024-02-26T06:17:09;4.80;;;2.65;;
36105;SDS011;22159;55.736;38.048;2024-02-26T06:19:35;5.00;;;2.45;;
36105;SDS011;22159;55.736;38.048;2024-02-26T06:22:01;4.90;;;2.65;;
36105;SDS011;22159;55.736;38.048;2024-02-26T06:24:27;3.95;;;2.22;;
36105;SDS011;22159;55.736;38.048;2024-02-26T06:26:53;5.82;;;2.10;;
36105;SDS011;22159;55.736;38.048;2024-02-26T06:29:19;3.50;;;2.10;;
36105;SDS011;22159;55.736;38.048;2024-02-26T06:31:45;4.70;;;1.92;;
36105;SDS011;22159;55.736;38.048;2024-02-26T06:34:13;3.30;;;2.10;;
36105;SDS011;22159;55.736;38.048;2024-02-26T06:36:39;3.15;;;1.98;;
36105;SDS011;22159;55.736;38.048;2024-02-26T06:39:05;3.97;;;2.20;;
36105;SDS011;22159;55.736;38.048;2024-02-26T06:41:31;4.03;;;2.33;;
36105;SDS011;22159;55.736;38.048;2024-02-26T06:43:57;3.50;;;1.80;;
36105;SDS011;22159;55.736;38.048;2024-02-26T06:46:23;3.40;;;2.10;;
36105;SDS011;22159;55.736;38.048;2024-02-26T06:48:50;3.20;;;1.88;;
36105;SDS011;22159;55.736;38.048;2024-02-26T06:51:17;4.10;;;2.10;;
36105;SDS011;22159;55.736;38.048;2024-02-26T06:53:43;3.00;;;1.70;;
36105;SDS011;22159;55.736;38.048;2024-02-26T06:56:09;4.00;;;2.00;;
36105;SDS011;22159;55.736;38.048;2024-02-26T06:58:35;3.75;;;2.00;;
36105;SDS011;22159;55.736;38.048;2024-02-26T07:01:01;4.05;;;2.08;;
36105;SDS011;22159;55.736;38.048;2024-02-26T07:03:27;3.67;;;1.90;;
36105;SDS011;22159;55.736;38.048;2024-02-26T07:05:54;4.72;;;1.92;;
36105;SDS011;22159;55.736;38.048;2024-02-26T07:08:20;2.25;;;1.52;;
36105;SDS011;22159;55.736;38.048;2024-02-26T07:10:46;3.80;;;2.13;;
36105;SDS011;22159;55.736;38.048;2024-02-26T07:13:13;2.50;;;1.77;;
36105;SDS011;22159;55.736;38.048;2024-02-26T07:15:39;2.15;;;1.73;;
36105;SDS011;22159;55.736;38.048;2024-02-26T07:18:05;3.40;;;1.83;;
36105;SDS011;22159;55.736;38.048;2024-02-26T07:20:31;2.75;;;1.70;;
36105;SDS011;22159;55.736;38.048;2024-02-26T07:22:57;3.05;;;1.77;;
36105;SDS011;22159;55.736;38.048;2024-02-26T07:25:23;4.80;;;1.95;;
36105;SDS011;22159;55.736;38.048;2024-02-26T07:27:52;3.20;;;1.80;;
36105;SDS011;22159;55.736;38.048;2024-02-26T07:30:18;2.55;;;1.70;;
36105;SDS011;22159;55.736;38.048;2024-02-26T07:32:44;2.50;;;1.70;;
36105;SDS011;22159;55.736;38.048;2024-02-26T07:35:10;2.72;;;2.00;;
36105;SDS011;22159;55.736;38.048;2024-02-26T07:37:36;3.55;;;1.77;;
36105;SDS011;22159;55.736;38.048;2024-02-26T07:40:03;2.80;;;1.50;;
36105;SDS011;22159;55.736;38.048;2024-02-26T07:42:29;1.83;;;1.25;;
36105;SDS011;22159;55.736;38.048;2024-02-26T07:44:55;2.13;;;1.40;;
36105;SDS011;22159;55.736;38.048;2024-02-26T07:47:21;2.97;;;1.58;;
36105;SDS011;22159;55.736;38.048;2024-02-26T07:49:48;2.45;;;1.70;;
36105;SDS011;22159;55.736;38.048;2024-02-26T07:52:14;2.78;;;1.55;;
36105;SDS011;22159;55.736;38.048;2024-02-26T07:54:40;2.70;;;1.52;;
36105;SDS011;22159;55.736;38.048;2024-02-26T07:57:06;3.90;;;1.40;;
36105;SDS011;22159;55.736;38.048;2024-02-26T07:59:32;3.22;;;1.65;;
36105;SDS011;22159;55.736;38.048;2024-02-26T08:01:58;2.53;;;1.35;;
36105;SDS011;22159;55.736;38.048;2024-02-26T08:04:25;3.13;;;1.40;;
36105;SDS011;22159;55.736;38.048;2024-02-26T08:06:51;2.63;;;1.30;;
36105;SDS011;22159;55.736;38.048;2024-02-26T08:09:17;2.67;;;1.40;;
36105;SDS011;22159;55.736;38.048;2024-02-26T08:11:43;2.83;;;1.55;;
36105;SDS011;22159;55.736;38.048;2024-02-26T08:14:09;1.40;;;1.13;;
36105;SDS011;22159;55.736;38.048;2024-02-26T08:16:35;1.98;;;1.30;;
36105;SDS011;22159;55.736;38.048;2024-02-26T08:19:01;1.75;;;1.42;;
36105;SDS011;22159;55.736;38.048;2024-02-26T08:21:27;3.78;;;1.65;;
36105;SDS011;22159;55.736;38.048;2024-02-26T08:23:54;2.00;;;1.23;;
36105;SDS011;22159;55.736;38.048;2024-02-26T08:26:20;2.00;;;1.40;;
36105;SDS011;22159;55.736;38.048;2024-02-26T08:28:47;2.05;;;1.40;;
36105;SDS011;22159;55.736;38.048;2024-02-26T08:31:14;2.05;;;1.40;;
36105;SDS011;22159;55.736;38.048;2024-02-26T08:33:40;1.42;;;1.20;;
36105;SDS011;22159;55.736;38.048;2024-02-26T08:36:06;1.45;;;1.30;;
36105;SDS011;22159;55.736;38.048;2024-02-26T08:38:32;2.53;;;1.52;;
36105;SDS011;22159;55.736;38.048;2024-02-26T08:41:00;2.15;;;1.30;;
36105;SDS011;22159;55.736;38.048;2024-02-26T08:43:26;1.40;;;1.23;;
36105;SDS011;22159;55.736;38.048;2024-02-26T08:45:52;1.42;;;1.08;;
36105;SDS011;22159;55.736;38.048;2024-02-26T08:48:18;2.45;;;1.40;;
36105;SDS011;22159;55.736;38.048;2024-02-26T08:50:44;2.17;;;1.33;;
36105;SDS011;22159;55.736;38.048;2024-02-26T08:53:10;2.22;;;1.40;;
36105;SDS011;22159;55.736;38.048;2024-02-26T08:55:36;2.40;;;1.38;;
36105;SDS011;22159;55.736;38.048;2024-02-26T08:58:02;1.95;;;1.30;;
36105;SDS011;22159;55.736;38.048;2024-02-26T09:00:28;1.95;;;1.27;;
36105;SDS011;22159;55.736;38.048;2024-02-26T09:02:54;2.47;;;1.42;;
36105;SDS011;22159;55.736;38.048;2024-02-26T09:05:20;2.38;;;1.48;;
36105;SDS011;22159;55.736;38.048;2024-02-26T09:07:46;1.80;;;1.40;;
36105;SDS011;22159;55.736;38.048;2024-02-26T09:10:12;2.17;;;1.55;;
36105;SDS011;22159;55.736;38.048;2024-02-26T09:12:38;1.83;;;1.38;;
36105;SDS011;22159;55.736;38.048;2024-02-26T09:15:05;2.65;;;1.55;;
36105;SDS011;22159;55.736;38.048;2024-02-26T09:17:31;2.50;;;1.63;;
36105;SDS011;22159;55.736;38.048;2024-02-26T09:19:57;1.65;;;1.40;;
36105;SDS011;22159;55.736;38.048;2024-02-26T09:22:23;4.25;;;1.85;;
36105;SDS011;22159;55.736;38.048;2024-02-26T09:24:49;3.47;;;1.80;;
36105;SDS011;22159;55.736;38.048;2024-02-26T09:27:17;2.25;;;1.75;;
36105;SDS011;22159;55.736;38.048;2024-02-26T09:29:43;1.77;;;1.40;;
36105;SDS011;22159;55.736;38.048;2024-02-26T09:32:09;4.05;;;1.83;;
36105;SDS011;22159;55.736;38.048;2024-02-26T09:34:35;3.72;;;1.55;;
36105;SDS011;22159;55.736;38.048;2024-02-26T09:37:01;2.65;;;1.80;;
36105;SDS011;22159;55.736;38.048;2024-02-26T09:39:27;3.60;;;2.10;;
36105;SDS011;22159;55.736;38.048;2024-02-26T09:41:53;2.60;;;1.88;;
36105;SDS011;22159;55.736;38.048;2024-02-26T09:44:19;2.88;;;1.88;;
36105;SDS011;22159;55.736;38.048;2024-02-26T09:46:47;2.22;;;1.95;;
36105;SDS011;22159;55.736;38.048;2024-02-26T09:49:15;2.85;;;1.90;;
36105;SDS011;22159;55.736;38.048;2024-02-26T09:51:41;3.72;;;2.58;;
36105;SDS011;22159;55.736;38.048;2024-02-26T09:54:10;2.90;;;2.10;;
36105;SDS011;22159;55.736;38.048;2024-02-26T09:56:38;2.95;;;2.40;;
36105;SDS011;22159;55.736;38.048;2024-02-26T10:01:34;4.32;;;2.80;;
36105;SDS011;22159;55.736;38.048;2024-02-26T10:04:00;2.97;;;2.60;;
36105;SDS011;22159;55.736;38.048;2024-02-26T10:06:27;3.53;;;2.88;;
36105;SDS011;22159;55.736;38.048;2024-02-26T10:08:56;4.43;;;3.40;;
36105;SDS011;22159;55.736;38.048;2024-02-26T10:11:23;3.28;;;2.97;;
36105;SDS011;22159;55.736;38.048;2024-02-26T10:13:49;3.80;;;3.35;;
36105;SDS011;22159;55.736;38.048;2024-02-26T10:16:16;3.53;;;3.10;;
36105;SDS011;22159;55.736;38.048;2024-02-26T10:18:45;4.00;;;3.30;;
36105;SDS011;22159;55.736;38.048;2024-02-26T10:21:11;3.95;;;3.22;;
36105;SDS011;22159;55.736;38.048;2024-02-26T10:23:38;5.32;;;3.08;;
36105;SDS011;22159;55.736;38.048;2024-02-26T10:26:04;6.13;;;3.40;;
36105;SDS011;22159;55.736;38.048;2024-02-26T10:28:30;5.68;;;3.50;;
36105;SDS011;22159;55.736;38.048;2024-02-26T10:30:56;4.93;;;3.50;;
36105;SDS011;22159;55.736;38.048;2024-02-26T10:33:23;4.38;;;3.40;;
36105;SDS011;22159;55.736;38.048;2024-02-26T10:35:49;4.95;;;3.22;;
36105;SDS011;22159;55.736;38.048;2024-02-26T10:38:15;5.28;;;3.42;;
36105;SDS011;22159;55.736;38.048;2024-02-26T10:40:45;3.60;;;3.30;;
36105;SDS011;22159;55.736;38.048;2024-02-26T10:43:11;5.95;;;3.60;;
36105;SDS011;22159;55.736;38.048;2024-02-26T10:45:39;3.15;;;2.95;;
36105;SDS011;22159;55.736;38.048;2024-02-26T10:48:12;4.72;;;3.30;;
36105;SDS011;22159;55.736;38.048;2024-02-26T10:50:38;3.85;;;3.38;;
36105;SDS011;22159;55.736;38.048;2024-02-26T10:53:05;3.58;;;2.97;;
36105;SDS011;22159;55.736;38.048;2024-02-26T10:55:32;4.65;;;3.20;;
36105;SDS011;22159;55.736;38.048;2024-02-26T10:58:00;3.78;;;3.03;;
36105;SDS011;22159;55.736;38.048;2024-02-26T11:00:27;3.30;;;2.92;;
36105;SDS011;22159;55.736;38.048;2024-02-26T11:02:54;4.55;;;3.22;;
36105;SDS011;22159;55.736;38.048;2024-02-26T11:05:23;3.28;;;2.97;;
36105;SDS011;22159;55.736;38.048;2024-02-26T11:07:49;4.60;;;3.53;;
36105;SDS011;22159;55.736;38.048;2024-02-26T11:10:16;4.65;;;3.70;;
36105;SDS011;22159;55.736;38.048;2024-02-26T11:12:42;3.85;;;3.20;;
36105;SDS011;22159;55.736;38.048;2024-02-26T11:15:08;4.53;;;3.05;;
36105;SDS011;22159;55.736;38.048;2024-02-26T11:17:35;6.93;;;3.25;;
36105;SDS011;22159;55.736;38.048;2024-02-26T11:20:03;3.47;;;3.15;;
36105;SDS011;22159;55.736;38.048;2024-02-26T11:22:30;4.97;;;3.53;;
36105;SDS011;22159;55.736;38.048;2024-02-26T11:24:57;3.40;;;3.05;;
36105;SDS011;22159;55.736;38.048;2024-02-26T11:27:29;3.50;;;3.20;;
36105;SDS011;22159;55.736;38.048;2024-02-26T11:29:57;3.17;;;2.63;;
36105;SDS011;22159;55.736;38.048;2024-02-26T11:32:25;3.42;;;2.92;;
36105;SDS011;22159;55.736;38.048;2024-02-26T11:34:52;3.45;;;2.90;;
36105;SDS011;22159;55.736;38.048;2024-02-26T11:37:19;5.13;;;3.05;;
36105;SDS011;22159;55.736;38.048;2024-02-26T11:39:45;3.17;;;2.88;;
36105;SDS011;22159;55.736;38.048;2024-02-26T11:42:15;4.28;;;3.10;;
36105;SDS011;22159;55.736;38.048;2024-02-26T11:44:41;5.30;;;3.28;;
36105;SDS011;22159;55.736;38.048;2024-02-26T11:47:14;3.85;;;2.83;;
36105;SDS011;22159;55.736;38.048;2024-02-26T11:49:43;4.80;;;3.45;;
36105;SDS011;22159;55.736;38.048;2024-02-26T11:52:09;4.75;;;3.15;;
36105;SDS011;22159;55.736;38.048;2024-02-26T11:59:50;2.97;;;2.70;;
36105;SDS011;22159;55.736;38.048;2024-02-26T12:05:01;4.43;;;2.70;;
36105;SDS011;22159;55.736;38.048;2024-02-26T12:07:27;4.07;;;2.85;;
36105;SDS011;22159;55.736;38.048;2024-02-26T12:09:56;6.18;;;3.13;;
36105;SDS011;22159;55.736;38.048;2024-02-26T12:12:38;4.35;;;3.08;;
36105;SDS011;22159;55.736;38.048;2024-02-26T12:15:05;4.15;;;2.83;;
36105;SDS011;22159;55.736;38.048;2024-02-26T12:17:31;3.63;;;2.90;;
36105;SDS011;22159;55.736;38.048;2024-02-26T12:20:07;4.03;;;2.60;;
36105;SDS011;22159;55.736;38.048;2024-02-26T12:22:34;5.85;;;2.70;;
36105;SDS011;22159;55.736;38.048;2024-02-26T12:25:02;2.63;;;2.42;;
36105;SDS011;22159;55.736;38.048;2024-02-26T12:27:28;4.20;;;2.70;;
36105;SDS011;22159;55.736;38.048;2024-02-26T12:29:54;3.95;;;2.65;;
36105;SDS011;22159;55.736;38.048;2024-02-26T12:32:20;2.60;;;2.40;;
36105;SDS011;22159;55.736;38.048;2024-02-26T12:34:46;3.45;;;2.47;;
36105;SDS011;22159;55.736;38.048;2024-02-26T12:37:13;3.53;;;2.80;;
36105;SDS011;22159;55.736;38.048;2024-02-26T12:39:38;3.33;;;2.70;;
36105;SDS011;22159;55.736;38.048;2024-02-26T12:42:04;3.47;;;2.40;;
36105;SDS011;22159;55.736;38.048;2024-02-26T12:44:31;3.67;;;2.33;;
36105;SDS011;22159;55.736;38.048;2024-02-26T12:47:00;5.20;;;2.83;;
36105;SDS011;22159;55.736;38.048;2024-02-26T12:49:27;3.63;;;2.85;;
36105;SDS011;22159;55.736;38.048;2024-02-26T12:51:54;4.57;;;2.50;;
36105;SDS011;22159;55.736;38.048;2024-02-26T12:54:26;2.92;;;2.50;;
36105;SDS011;22159;55.736;38.048;2024-02-26T12:56:52;2.70;;;2.50;;
36105;SDS011;22159;55.736;38.048;2024-02-26T12:59:18;4.50;;;2.25;;
36105;SDS011;22159;55.736;38.048;2024-02-26T13:01:44;3.67;;;2.60;;
36105;SDS011;22159;55.736;38.048;2024-02-26T13:04:11;2.70;;;2.40;;
36105;SDS011;22159;55.736;38.048;2024-02-26T13:06:37;4.85;;;2.58;;
36105;SDS011;22159;55.736;38.048;2024-02-26T13:09:03;3.95;;;2.65;;
36105;SDS011;22159;55.736;38.048;2024-02-26T13:11:29;3.78;;;2.53;;
36105;SDS011;22159;55.736;38.048;2024-02-26T13:13:56;4.05;;;2.45;;
36105;SDS011;22159;55.736;38.048;2024-02-26T13:16:23;3.47;;;2.58;;
36105;SDS011;22159;55.736;38.048;2024-02-26T13:18:50;3.30;;;2.45;;
36105;SDS011;22159;55.736;38.048;2024-02-26T13:21:16;3.65;;;2.35;;
36105;SDS011;22159;55.736;38.048;2024-02-26T13:23:45;3.83;;;2.33;;
36105;SDS011;22159;55.736;38.048;2024-02-26T13:26:13;2.72;;;2.42;;
36105;SDS011;22159;55.736;38.048;2024-02-26T13:28:40;4.40;;;2.40;;
36105;SDS011;22159;55.736;38.048;2024-02-26T13:31:06;3.22;;;2.55;;
36105;SDS011;22159;55.736;38.048;2024-02-26T13:33:32;3.17;;;2.33;;
36105;SDS011;22159;55.736;38.048;2024-02-26T13:35:59;4.05;;;2.30;;
36105;SDS011;22159;55.736;38.048;2024-02-26T13:38:25;2.40;;;2.05;;
36105;SDS011;22159;55.736;38.048;2024-02-26T13:40:52;3.83;;;2.35;;
36105;SDS011;22159;55.736;38.048;2024-02-26T13:43:18;3.13;;;2.22;;
36105;SDS011;22159;55.736;38.048;2024-02-26T13:45:45;2.60;;;2.40;;
36105;SDS011;22159;55.736;38.048;2024-02-26T13:48:11;2.40;;;2.20;;
36105;SDS011;22159;55.736;38.048;2024-02-26T13:50:41;2.80;;;2.58;;
36105;SDS011;22159;55.736;38.048;2024-02-26T13:53:10;2.72;;;2.08;;
36105;SDS011;22159;55.736;38.048;2024-02-26T13:55:36;2.75;;;2.20;;
36105;SDS011;22159;55.736;38.048;2024-02-26T13:58:02;3.75;;;2.08;;
36105;SDS011;22159;55.736;38.048;2024-02-26T14:00:29;3.17;;;2.13;;
36105;SDS011;22159;55.736;38.048;2024-02-26T14:02:59;2.75;;;2.30;;
36105;SDS011;22159;55.736;38.048;2024-02-26T14:05:25;3.38;;;1.85;;
36105;SDS011;22159;55.736;38.048;2024-02-26T14:07:52;3.85;;;2.13;;
36105;SDS011;22159;55.736;38.048;2024-02-26T14:10:19;3.53;;;2.10;;
36105;SDS011;22159;55.736;38.048;2024-02-26T14:12:45;2.60;;;2.10;;
36105;SDS011;22159;55.736;38.048;2024-02-26T14:15:11;2.90;;;2.00;;
36105;SDS011;22159;55.736;38.048;2024-02-26T14:17:37;3.30;;;2.17;;
36105;SDS011;22159;55.736;38.048;2024-02-26T14:20:04;2.85;;;2.03;;
36105;SDS011;22159;55.736;38.048;2024-02-26T14:22:30;2.10;;;1.90;;
36105;SDS011;22159;55.736;38.048;2024-02-26T14:24:56;3.33;;;2.15;;
36105;SDS011;22159;55.736;38.048;2024-02-26T14:27:23;2.75;;;2.00;;
36105;SDS011;22159;55.736;38.048;2024-02-26T14:29:49;1.98;;;1.77;;
36105;SDS011;22159;55.736;38.048;2024-02-26T14:32:15;3.25;;;2.03;;
36105;SDS011;22159;55.736;38.048;2024-02-26T14:34:42;2.25;;;2.05;;
36105;SDS011;22159;55.736;38.048;2024-02-26T14:37:08;3.33;;;1.70;;
36105;SDS011;22159;55.736;38.048;2024-02-26T14:39:34;2.30;;;2.10;;